Time;durP1;ratioP1;P1;durP2;ratioP2;P2;SDS_P1;SDS_P2;PMS_P1;PMS_P2;Temp;Humidity;BMP_temperature;BMP_pressure;BME280_temperature;BME280_humidity;BME280_pressure;Samples;Min_cycle;Max_cycle;Signal;HPM_P1;HPM_P2
2020/12/15 00:02:12;;;;;;;6.70;5.25;;;3.60;99.90;;;;;;5005862;28;20776;-74
2020/12/15 00:04:39;;;;;;;6.78;5.15;;;3.60;99.90;;;;;;5006647;28;20214;-75
2020/12/15 00:07:05;;;;;;;6.45;5.57;;;3.60;99.90;;;;;;5006566;28;20210;-75
2020/12/15 00:09:32;;;;;;;6.30;4.70;;;3.70;99.90;;;;;;5007147;28;20845;-75
2020/12/15 00:11:58;;;;;;;5.90;5.30;;;3.70;99.90;;;;;;5005553;28;20206;-74
2020/12/15 00:14:24;;;;;;;5.85;5.32;;;3.70;99.90;;;;;;5007029;28;20198;-74
2020/12/15 00:16:50;;;;;;;9.40;6.38;;;3.60;99.90;;;;;;5005864;28;20206;-74
2020/12/15 00:19:17;;;;;;;4.72;4.07;;;3.60;99.90;;;;;;5006860;28;20203;-74
2020/12/15 00:21:43;;;;;;;5.80;4.80;;;3.60;99.90;;;;;;5006336;28;20217;-75
2020/12/15 00:24:11;;;;;;;5.40;4.60;;;3.70;99.90;;;;;;5005687;28;20280;-74
2020/12/15 00:26:38;;;;;;;5.80;4.55;;;3.70;99.90;;;;;;5005663;28;20214;-74
2020/12/15 00:29:04;;;;;;;4.28;3.88;;;3.90;99.90;;;;;;5005866;28;20218;-74
2020/12/15 00:31:35;;;;;;;5.63;4.60;;;3.90;99.90;;;;;;5006361;28;20631;-74
2020/12/15 00:34:01;;;;;;;4.95;4.53;;;4.00;99.90;;;;;;5006305;28;20230;-75
2020/12/15 00:36:28;;;;;;;5.97;5.15;;;4.00;99.90;;;;;;5006612;28;20210;-74
2020/12/15 00:38:54;;;;;;;5.15;4.65;;;4.00;99.90;;;;;;5004579;28;20226;-75
2020/12/15 00:41:20;;;;;;;5.45;3.97;;;4.10;99.90;;;;;;5005534;28;20552;-74
2020/12/15 00:43:48;;;;;;;6.63;4.72;;;4.10;99.90;;;;;;5005206;28;20226;-74
2020/12/15 00:46:14;;;;;;;5.10;4.60;;;4.10;99.90;;;;;;5006114;28;20206;-74
2020/12/15 00:48:41;;;;;;;6.70;5.38;;;4.20;99.90;;;;;;5005255;28;20206;-74
2020/12/15 00:51:07;;;;;;;5.07;4.63;;;4.20;99.90;;;;;;5005736;28;20241;-74
2020/12/15 00:53:33;;;;;;;6.53;5.40;;;4.20;99.90;;;;;;5005175;28;20233;-74
2020/12/15 00:56:00;;;;;;;6.32;4.72;;;4.20;99.90;;;;;;5005846;28;20206;-74
2020/12/15 00:58:26;;;;;;;5.95;4.82;;;4.20;99.90;;;;;;5005013;28;20264;-74
2020/12/15 01:00:53;;;;;;;6.22;4.50;;;4.20;99.90;;;;;;5004542;28;20210;-74
2020/12/15 01:03:19;;;;;;;5.50;4.47;;;4.20;99.90;;;;;;5004610;28;20222;-75
2020/12/15 01:05:45;;;;;;;5.55;4.75;;;4.10;99.90;;;;;;5004803;28;20563;-74
2020/12/15 01:08:11;;;;;;;5.82;4.78;;;4.10;99.90;;;;;;5004894;28;20206;-75
2020/12/15 01:10:38;;;;;;;5.57;4.97;;;4.10;99.90;;;;;;5004905;28;20199;-75
2020/12/15 01:13:04;;;;;;;5.68;4.75;;;4.10;99.90;;;;;;5004891;28;20647;-74
2020/12/15 01:15:30;;;;;;;5.65;5.10;;;4.20;99.90;;;;;;5004675;28;20213;-74
2020/12/15 01:17:57;;;;;;;4.60;4.20;;;4.20;99.90;;;;;;5004664;28;20218;-74
2020/12/15 01:20:23;;;;;;;6.13;4.95;;;4.20;99.90;;;;;;5004458;28;20221;-74
2020/12/15 01:22:50;;;;;;;7.57;5.25;;;4.20;99.90;;;;;;5004341;28;20233;-77
2020/12/15 01:25:16;;;;;;;4.95;4.45;;;4.20;99.90;;;;;;5009578;28;20214;-77
2020/12/15 01:27:50;;;;;;;5.80;4.82;;;4.20;99.90;;;;;;5007918;28;20690;-77
2020/12/15 01:30:16;;;;;;;7.03;4.95;;;4.30;99.90;;;;;;5007897;28;20726;-77
2020/12/15 01:32:42;;;;;;;5.38;4.70;;;4.30;99.90;;;;;;5008473;28;20877;-77
2020/12/15 01:35:09;;;;;;;6.30;5.20;;;4.30;99.90;;;;;;5009098;28;20203;-77
2020/12/15 01:37:35;;;;;;;6.13;4.97;;;4.30;99.90;;;;;;5008963;28;20223;-77
2020/12/15 01:40:02;;;;;;;6.18;5.00;;;4.40;99.90;;;;;;5008783;28;20202;-77
2020/12/15 01:42:28;;;;;;;5.65;4.85;;;4.40;99.90;;;;;;5008775;28;20223;-77
2020/12/15 01:44:54;;;;;;;7.40;5.85;;;4.50;99.90;;;;;;5008767;28;20213;-77
2020/12/15 01:47:21;;;;;;;7.93;5.78;;;4.50;99.90;;;;;;5009153;28;20621;-77
2020/12/15 01:49:48;;;;;;;5.28;4.78;;;4.50;99.90;;;;;;5008693;28;20198;-77
2020/12/15 01:52:15;;;;;;;7.30;5.32;;;4.50;99.90;;;;;;5008401;28;20222;-77
2020/12/15 01:54:44;;;;;;;6.75;5.55;;;4.40;99.90;;;;;;5010024;28;20583;-77
2020/12/15 01:57:11;;;;;;;9.52;6.80;;;4.50;99.90;;;;;;5008696;28;20234;-77
2020/12/15 01:59:37;;;;;;;7.47;5.50;;;4.50;99.90;;;;;;5009256;28;20206;-77
2020/12/15 02:02:04;;;;;;;6.60;5.22;;;4.50;99.90;;;;;;5007484;28;20207;-77
2020/12/15 02:04:30;;;;;;;6.07;5.47;;;4.50;99.90;;;;;;5009193;28;20831;-77
2020/12/15 02:06:57;;;;;;;7.07;5.32;;;4.50;99.90;;;;;;5008360;28;20213;-77
2020/12/15 02:09:24;;;;;;;5.50;4.60;;;4.50;99.90;;;;;;5008988;28;20229;-77
2020/12/15 02:11:52;;;;;;;6.20;5.57;;;4.50;99.90;;;;;;5008209;28;20203;-77
2020/12/15 02:14:19;;;;;;;5.60;5.10;;;4.60;99.90;;;;;;5007787;28;20670;-77
2020/12/15 02:16:50;;;;;;;6.43;5.20;;;4.60;99.90;;;;;;5008924;28;20210;-77
2020/12/15 02:19:17;;;;;;;6.28;5.10;;;4.60;99.90;;;;;;5008141;28;20194;-77
2020/12/15 02:21:55;;;;;;;6.80;5.45;;;4.60;99.90;;;;;;5008181;28;20236;-77
2020/12/15 02:24:21;;;;;;;5.57;4.75;;;4.60;99.90;;;;;;5005775;28;20206;-77
2020/12/15 02:26:48;;;;;;;6.57;4.95;;;4.60;99.90;;;;;;5008244;28;20576;-77
2020/12/15 02:29:14;;;;;;;7.20;5.40;;;4.60;99.90;;;;;;5008864;28;20221;-77
2020/12/15 02:31:41;;;;;;;5.97;5.07;;;4.60;99.90;;;;;;5007860;28;20210;-77
2020/12/15 02:34:07;;;;;;;5.53;4.38;;;4.60;99.90;;;;;;5008248;28;20723;-77
2020/12/15 02:36:33;;;;;;;5.60;5.05;;;4.60;99.90;;;;;;5008507;28;20705;-77
2020/12/15 02:39:08;;;;;;;5.82;4.55;;;4.60;99.90;;;;;;5007980;28;20233;-77
2020/12/15 02:41:35;;;;;;;5.88;5.18;;;4.60;99.90;;;;;;5008350;28;20561;-77
2020/12/15 02:44:02;;;;;;;4.72;4.13;;;4.60;99.90;;;;;;5009329;28;20226;-76
2020/12/15 02:46:28;;;;;;;6.13;4.25;;;4.60;99.90;;;;;;5009487;28;20206;-77
2020/12/15 02:48:55;;;;;;;4.95;4.35;;;4.60;99.90;;;;;;5008535;28;20195;-76
2020/12/15 02:51:22;;;;;;;5.82;4.35;;;4.70;99.90;;;;;;5008683;28;20578;-77
2020/12/15 02:53:48;;;;;;;4.30;3.90;;;4.70;99.90;;;;;;5007284;28;20564;-77
2020/12/15 02:56:22;;;;;;;4.95;4.45;;;4.70;99.90;;;;;;5069543;23;20235;-71
2020/12/15 02:58:49;;;;;;;5.30;4.80;;;4.80;99.90;;;;;;4988607;28;20218;-71
2020/12/15 03:01:16;;;;;;;5.50;4.15;;;4.80;99.90;;;;;;4988483;28;20203;-71
2020/12/15 03:03:42;;;;;;;4.95;3.90;;;4.80;99.90;;;;;;4989976;28;20650;-70
2020/12/15 03:06:08;;;;;;;4.30;3.45;;;4.80;99.90;;;;;;4992317;28;20207;-70
2020/12/15 03:08:34;;;;;;;4.70;4.30;;;4.90;99.90;;;;;;4992382;28;20203;-70
2020/12/15 03:11:01;;;;;;;4.10;3.58;;;4.80;99.90;;;;;;4992092;28;20230;-70
2020/12/15 03:13:28;;;;;;;4.00;3.60;;;4.80;99.90;;;;;;4991764;28;20540;-70
2020/12/15 03:15:54;;;;;;;4.70;4.00;;;4.80;99.90;;;;;;4992255;28;20214;-71
2020/12/15 03:18:21;;;;;;;6.20;3.78;;;4.90;99.90;;;;;;4992270;28;20230;-70
2020/12/15 03:20:48;;;;;;;10.10;4.75;;;5.00;99.90;;;;;;4992465;28;20211;-70
2020/12/15 03:23:15;;;;;;;7.45;4.07;;;5.00;99.90;;;;;;4991564;28;20229;-71
2020/12/15 03:25:41;;;;;;;4.55;3.97;;;5.10;99.90;;;;;;4992038;28;20207;-70
2020/12/15 03:28:08;;;;;;;6.53;4.25;;;5.10;99.90;;;;;;4992339;28;20677;-71
2020/12/15 03:30:35;;;;;;;5.57;4.32;;;5.10;99.90;;;;;;4992071;28;20210;-70
2020/12/15 03:33:02;;;;;;;6.60;4.18;;;5.10;99.90;;;;;;4991951;28;20982;-70
2020/12/15 03:35:28;;;;;;;7.30;4.00;;;5.20;99.90;;;;;;4992069;28;20210;-70
2020/12/15 03:37:55;;;;;;;8.07;4.78;;;5.20;99.90;;;;;;4992370;28;20234;-70
2020/12/15 03:40:21;;;;;;;8.75;4.80;;;5.30;99.90;;;;;;4991211;28;20231;-70
2020/12/15 03:42:47;;;;;;;6.20;4.20;;;5.30;99.90;;;;;;4991559;28;20230;-70
2020/12/15 03:45:14;;;;;;;5.78;4.50;;;5.30;99.90;;;;;;4992320;28;20210;-70
2020/12/15 03:47:41;;;;;;;5.70;4.07;;;5.20;99.90;;;;;;4991618;28;20199;-69
2020/12/15 03:50:09;;;;;;;6.90;4.18;;;5.20;99.90;;;;;;4992191;28;20211;-70
2020/12/15 03:52:36;;;;;;;3.95;3.55;;;5.30;99.90;;;;;;4990870;28;20227;-70
2020/12/15 03:55:02;;;;;;;4.80;3.88;;;5.30;99.90;;;;;;4991830;28;20268;-70
2020/12/15 03:57:28;;;;;;;5.35;3.80;;;5.30;99.90;;;;;;4991953;28;20382;-70
2020/12/15 03:59:55;;;;;;;4.82;3.67;;;5.20;99.90;;;;;;4992004;28;20755;-70
2020/12/15 04:02:21;;;;;;;3.40;3.10;;;5.30;99.90;;;;;;4991655;28;20230;-70
2020/12/15 04:04:48;;;;;;;5.07;3.60;;;5.20;99.90;;;;;;4991454;28;20207;-70
2020/12/15 04:07:14;;;;;;;3.78;3.40;;;5.20;99.90;;;;;;4991771;28;20207;-70
2020/12/15 04:09:40;;;;;;;4.90;3.55;;;5.20;99.90;;;;;;4991509;28;20682;-70
2020/12/15 04:12:06;;;;;;;4.10;3.30;;;5.10;99.90;;;;;;4991189;28;20211;-70
2020/12/15 04:14:32;;;;;;;2.75;2.55;;;5.10;99.90;;;;;;4990265;28;20207;-70
2020/12/15 04:16:59;;;;;;;3.75;2.85;;;5.20;99.90;;;;;;4991397;28;20210;-70
2020/12/15 04:19:25;;;;;;;3.70;2.95;;;5.20;99.90;;;;;;4991190;28;20229;-70
2020/12/15 04:21:52;;;;;;;3.95;2.83;;;5.30;99.90;;;;;;4990579;28;20726;-70
2020/12/15 04:24:18;;;;;;;2.90;2.60;;;5.30;99.90;;;;;;4991619;28;20210;-70
2020/12/15 04:26:44;;;;;;;3.90;2.70;;;5.40;99.90;;;;;;4991143;28;20206;-70
2020/12/15 04:29:11;;;;;;;3.83;3.25;;;5.40;99.90;;;;;;4991476;28;20628;-70
2020/12/15 04:31:37;;;;;;;5.15;3.85;;;5.40;99.90;;;;;;4990549;28;20211;-69
2020/12/15 04:34:04;;;;;;;4.93;3.88;;;5.50;99.90;;;;;;4991031;28;20219;-69
2020/12/15 04:36:30;;;;;;;3.95;2.97;;;5.40;99.90;;;;;;4990817;28;20199;-70
2020/12/15 04:38:57;;;;;;;4.15;3.75;;;5.40;99.90;;;;;;4990860;28;20227;-70
2020/12/15 04:41:24;;;;;;;4.28;3.42;;;5.40;99.90;;;;;;4990621;28;20265;-69
2020/12/15 04:43:50;;;;;;;5.28;3.78;;;5.40;99.90;;;;;;4990802;28;20223;-70
2020/12/15 04:46:21;;;;;;;4.47;4.07;;;5.40;99.90;;;;;;4991003;28;20218;-70
2020/12/15 04:49:00;;;;;;;3.35;3.05;;;5.40;99.90;;;;;;4990574;28;20227;-70
2020/12/15 04:51:28;;;;;;;4.32;3.60;;;5.30;99.90;;;;;;4990852;28;20647;-70
2020/12/15 04:53:55;;;;;;;4.57;3.70;;;5.30;99.90;;;;;;4990564;28;20703;-70
2020/12/15 04:56:27;;;;;;;4.57;3.20;;;5.30;99.90;;;;;;4990506;28;20235;-69
2020/12/15 04:58:57;;;;;;;4.80;3.60;;;5.30;99.90;;;;;;4990922;28;20223;-71
2020/12/15 05:01:24;;;;;;;5.07;3.45;;;5.20;99.90;;;;;;4971952;28;20581;-71
2020/12/15 05:03:52;;;;;;;5.38;3.45;;;5.30;99.90;;;;;;4969023;28;20230;-70
2020/12/15 05:06:25;;;;;;;3.25;2.95;;;5.30;99.90;;;;;;4969609;28;20327;-71
2020/12/15 05:08:52;;;;;;;4.72;3.20;;;5.30;99.90;;;;;;4972432;28;20627;-71
2020/12/15 05:11:18;;;;;;;3.15;2.70;;;5.20;99.90;;;;;;4990573;28;20206;-71
2020/12/15 05:13:46;;;;;;;3.55;3.25;;;5.30;99.90;;;;;;4989577;28;20228;-71
2020/12/15 05:16:12;;;;;;;3.55;3.10;;;5.30;99.90;;;;;;4990624;28;20573;-71
2020/12/15 05:18:38;;;;;;;4.32;3.42;;;5.20;99.90;;;;;;4989038;28;20227;-70
2020/12/15 05:21:15;;;;;;;3.80;3.00;;;5.20;99.90;;;;;;4989625;28;20210;-70
2020/12/15 05:23:50;;;;;;;3.75;2.88;;;5.30;99.90;;;;;;4988573;28;20233;-69
2020/12/15 05:26:24;;;;;;;3.15;2.83;;;5.30;99.90;;;;;;4988998;28;20230;-70
2020/12/15 05:29:03;;;;;;;3.72;2.70;;;5.30;99.90;;;;;;4989727;28;20597;-70
2020/12/15 05:31:29;;;;;;;4.55;3.65;;;5.30;99.90;;;;;;4989314;28;20206;-69
2020/12/15 05:33:57;;;;;;;3.70;3.00;;;5.30;99.90;;;;;;4990022;28;20223;-71
2020/12/15 05:36:24;;;;;;;3.47;2.80;;;5.30;99.90;;;;;;4990390;28;20218;-70
2020/12/15 05:39:05;;;;;;;4.22;3.38;;;5.40;99.90;;;;;;4989215;28;20234;-71
2020/12/15 05:41:32;;;;;;;4.13;3.30;;;5.40;99.90;;;;;;4989506;28;20211;-70
2020/12/15 05:43:59;;;;;;;5.05;3.40;;;5.50;99.90;;;;;;4989901;28;20252;-70
2020/12/15 05:46:29;;;;;;;3.03;2.70;;;5.50;99.90;;;;;;4989960;28;20211;-70
2020/12/15 05:49:02;;;;;;;4.03;3.60;;;5.50;99.90;;;;;;4989738;28;20238;-71
2020/12/15 05:51:37;;;;;;;4.28;3.40;;;5.50;99.90;;;;;;4989683;28;20210;-71
2020/12/15 05:54:12;;;;;;;3.35;2.75;;;5.50;99.90;;;;;;4989729;28;20258;-71
2020/12/15 05:56:39;;;;;;;3.90;3.30;;;5.50;99.90;;;;;;4992279;28;20212;-71
2020/12/15 05:59:18;;;;;;;4.43;3.60;;;5.50;99.90;;;;;;5010218;28;20750;-71
2020/12/15 06:01:47;;;;;;;3.13;2.80;;;5.50;99.90;;;;;;5008232;28;20202;-71
2020/12/15 06:04:13;;;;;;;4.35;2.47;;;5.50;99.90;;;;;;5009357;28;20721;-71
2020/12/15 06:06:41;;;;;;;2.83;2.53;;;5.50;99.90;;;;;;5008024;28;20240;-71
2020/12/15 06:09:09;;;;;;;4.50;3.58;;;5.50;99.90;;;;;;5008125;28;20206;-71
2020/12/15 06:11:38;;;;;;;3.40;3.10;;;5.50;99.90;;;;;;5008514;28;20214;-71
2020/12/15 06:14:04;;;;;;;3.90;3.60;;;5.50;99.90;;;;;;5009179;28;20229;-71
2020/12/15 06:16:30;;;;;;;5.43;3.40;;;5.50;99.90;;;;;;5009086;28;20249;-71
2020/12/15 06:18:57;;;;;;;4.05;3.05;;;5.60;99.90;;;;;;5009202;28;20230;-70
2020/12/15 06:21:24;;;;;;;5.68;4.65;;;5.60;99.90;;;;;;5008868;28;20206;-72
2020/12/15 06:23:58;;;;;;;3.50;2.75;;;5.60;99.90;;;;;;5008153;28;20226;-71
2020/12/15 06:26:26;;;;;;;3.72;3.22;;;5.70;99.90;;;;;;5008859;28;20603;-71
2020/12/15 06:28:58;;;;;;;8.32;4.65;;;5.60;99.90;;;;;;5008798;28;20198;-71
2020/12/15 06:31:24;;;;;;;4.38;3.97;;;5.60;99.90;;;;;;5008395;28;20240;-71
2020/12/15 06:33:55;;;;;;;5.32;4.10;;;5.60;99.90;;;;;;5007966;28;20296;-72
2020/12/15 06:36:26;;;;;;;4.82;3.72;;;5.70;99.90;;;;;;5008783;28;20206;-71
2020/12/15 06:38:53;;;;;;;4.78;3.70;;;5.70;99.90;;;;;;5010015;28;20565;-71
2020/12/15 06:41:21;;;;;;;4.10;3.70;;;5.70;99.90;;;;;;4993020;28;20211;-71
2020/12/15 06:43:47;;;;;;;7.47;4.60;;;5.70;99.90;;;;;;4993151;28;20721;-72
2020/12/15 06:46:14;;;;;;;7.13;4.72;;;5.70;99.90;;;;;;4999299;28;20294;-71
2020/12/15 06:48:44;;;;;;;5.15;3.70;;;5.70;99.90;;;;;;5012443;28;20209;-71
2020/12/15 06:51:10;;;;;;;5.53;3.92;;;5.70;99.90;;;;;;5012597;28;20213;-72
2020/12/15 06:53:39;;;;;;;4.10;3.70;;;5.70;99.90;;;;;;5012033;28;20596;-72
2020/12/15 06:56:05;;;;;;;4.70;3.88;;;5.70;99.90;;;;;;5012907;28;20329;-72
2020/12/15 06:58:32;;;;;;;4.63;4.18;;;5.70;99.90;;;;;;5011710;28;20594;-72
2020/12/15 07:00:59;;;;;;;5.80;4.70;;;5.70;99.90;;;;;;5012637;28;20209;-72
2020/12/15 07:03:34;;;;;;;4.10;3.70;;;5.70;99.90;;;;;;5011942;28;20226;-71
2020/12/15 07:06:08;;;;;;;7.22;3.80;;;5.70;99.90;;;;;;5012531;28;20244;-71
2020/12/15 07:08:34;;;;;;;5.55;3.90;;;5.70;99.90;;;;;;5012101;28;20225;-71
2020/12/15 07:11:01;;;;;;;3.50;3.17;;;5.70;99.90;;;;;;4993447;28;20211;-72
2020/12/15 07:13:28;;;;;;;6.18;4.35;;;5.60;99.90;;;;;;4991897;28;20223;-72
2020/12/15 07:15:54;;;;;;;5.05;3.65;;;5.60;99.90;;;;;;4992672;28;20617;-72
2020/12/15 07:18:20;;;;;;;5.13;3.45;;;5.60;99.90;;;;;;4992401;28;20223;-72
2020/12/15 07:20:47;;;;;;;5.97;4.80;;;5.60;99.90;;;;;;5007762;28;20210;-72
2020/12/15 07:23:15;;;;;;;5.43;4.20;;;5.50;99.90;;;;;;5005891;28;20245;-72
2020/12/15 07:25:41;;;;;;;5.20;4.30;;;5.60;99.90;;;;;;4992343;28;20656;-72
2020/12/15 07:28:09;;;;;;;6.05;4.60;;;5.50;99.90;;;;;;4992258;28;20199;-72
2020/12/15 07:30:38;;;;;;;6.65;3.55;;;5.60;99.90;;;;;;4992191;28;20203;-72
2020/12/15 07:33:04;;;;;;;6.32;4.05;;;5.50;99.90;;;;;;4991605;28;20247;-70
2020/12/15 07:35:31;;;;;;;5.63;4.03;;;5.60;99.90;;;;;;4995011;28;20577;-70
2020/12/15 07:37:57;;;;;;;4.10;3.50;;;5.60;99.90;;;;;;5011861;28;20226;-70
2020/12/15 07:40:28;;;;;;;4.68;3.50;;;5.70;99.90;;;;;;5010834;28;20571;-70
2020/12/15 07:42:55;;;;;;;5.18;3.45;;;5.70;99.90;;;;;;5011132;28;20230;-71
2020/12/15 07:45:24;;;;;;;6.28;3.42;;;5.70;99.90;;;;;;5011437;28;20722;-71
2020/12/15 07:47:51;;;;;;;6.07;4.68;;;5.80;99.90;;;;;;5006903;28;20238;-71
2020/12/15 07:50:22;;;;;;;6.47;4.70;;;5.80;99.90;;;;;;4991236;28;20269;-70
2020/12/15 07:52:48;;;;;;;9.80;5.82;;;5.90;99.90;;;;;;4990941;28;20219;-71
2020/12/15 07:55:15;;;;;;;9.52;6.32;;;5.80;99.90;;;;;;4991928;28;20678;-71
2020/12/15 07:57:42;;;;;;;8.02;5.82;;;5.90;99.90;;;;;;4989784;28;20269;-71
2020/12/15 08:00:11;;;;;;;7.03;5.90;;;5.80;99.90;;;;;;4991646;28;20263;-71
2020/12/15 08:02:39;;;;;;;9.15;7.13;;;5.80;99.90;;;;;;4990618;28;20223;-71
2020/12/15 08:05:14;;;;;;;8.15;6.90;;;5.70;99.90;;;;;;4992166;28;20207;-71
2020/12/15 08:07:46;;;;;;;14.82;7.80;;;5.70;99.90;;;;;;4991590;28;20199;-71
2020/12/15 08:10:13;;;;;;;11.93;6.70;;;5.70;99.90;;;;;;4991467;28;20678;-70
2020/12/15 08:12:40;;;;;;;7.82;5.88;;;5.70;99.90;;;;;;4995584;28;20222;-70
2020/12/15 08:15:07;;;;;;;10.68;7.20;;;5.80;99.90;;;;;;5011027;28;20210;-70
2020/12/15 08:17:34;;;;;;;8.52;6.45;;;5.80;99.90;;;;;;5010555;28;20202;-72
2020/12/15 08:20:04;;;;;;;12.82;6.20;;;5.80;99.90;;;;;;5001273;28;20211;-71
2020/12/15 08:22:31;;;;;;;10.25;5.82;;;5.70;99.90;;;;;;4990604;28;20219;-70
2020/12/15 08:24:57;;;;;;;8.32;5.63;;;5.70;99.90;;;;;;4990898;28;20206;-70
2020/12/15 08:27:25;;;;;;;5.95;5.35;;;5.80;99.90;;;;;;4991355;28;20203;-71
2020/12/15 08:29:51;;;;;;;8.27;6.30;;;5.80;99.90;;;;;;4998605;28;20203;-70
2020/12/15 08:32:28;;;;;;;7.35;5.95;;;5.70;99.90;;;;;;5010142;28;20276;-71
2020/12/15 08:34:59;;;;;;;9.27;5.65;;;5.80;99.90;;;;;;5011127;28;20209;-71
2020/12/15 08:37:26;;;;;;;7.63;5.35;;;5.80;99.90;;;;;;5010273;28;20202;-70
2020/12/15 08:39:54;;;;;;;9.43;5.90;;;5.90;99.90;;;;;;5010920;28;20226;-70
2020/12/15 08:42:20;;;;;;;6.32;5.72;;;5.90;99.90;;;;;;5009824;28;20260;-70
2020/12/15 08:44:47;;;;;;;5.35;4.85;;;5.90;99.90;;;;;;5010132;28;20211;-70
2020/12/15 08:47:17;;;;;;;7.78;6.00;;;5.90;99.90;;;;;;5011081;28;20198;-73
2020/12/15 08:49:44;;;;;;;7.10;5.65;;;5.90;99.90;;;;;;5011048;28;20678;-72
2020/12/15 08:52:11;;;;;;;7.18;5.45;;;6.00;99.90;;;;;;5010763;28;20260;-70
2020/12/15 08:54:42;;;;;;;6.97;4.70;;;6.00;99.90;;;;;;5009825;28;20214;-70
2020/12/15 08:57:14;;;;;;;5.63;5.13;;;6.00;99.90;;;;;;5010620;28;20210;-71
2020/12/15 08:59:41;;;;;;;6.40;4.85;;;6.10;99.90;;;;;;5073708;23;20276;-76
2020/12/15 09:02:11;;;;;;;5.40;4.40;;;6.10;99.90;;;;;;5010321;28;20199;-76
2020/12/15 09:04:38;;;;;;;7.32;5.32;;;6.10;99.90;;;;;;5011837;28;20213;-76
2020/12/15 09:07:17;;;;;;;5.57;4.07;;;6.20;99.90;;;;;;5011957;28;20214;-76
2020/12/15 09:09:44;;;;;;;6.88;4.90;;;6.20;99.90;;;;;;5011728;28;20206;-76
2020/12/15 09:12:11;;;;;;;6.85;4.55;;;6.30;99.90;;;;;;5011232;28;20230;-76
2020/12/15 09:14:38;;;;;;;6.20;4.38;;;6.50;99.90;;;;;;5011534;28;20252;-76
2020/12/15 09:17:04;;;;;;;4.45;4.05;;;6.60;99.90;;;;;;5011381;28;20300;-75
2020/12/15 09:19:31;;;;;;;5.60;4.28;;;6.60;99.90;;;;;;5011772;28;20226;-77
2020/12/15 09:21:59;;;;;;;4.43;4.00;;;6.70;99.90;;;;;;5011138;28;20238;-75
2020/12/15 09:24:26;;;;;;;7.22;3.92;;;6.70;99.90;;;;;;5012109;28;20237;-76
2020/12/15 09:26:53;;;;;;;10.60;6.00;;;6.70;99.90;;;;;;5010067;28;20206;-76
2020/12/15 09:29:20;;;;;;;5.53;5.03;;;6.80;99.90;;;;;;5013718;28;20736;-76
2020/12/15 09:31:59;;;;;;;7.85;6.25;;;6.80;99.90;;;;;;5030965;28;20209;-76
2020/12/15 09:34:26;;;;;;;9.95;5.85;;;6.80;99.90;;;;;;5031003;28;20202;-76
2020/12/15 09:36:56;;;;;;;8.20;5.55;;;6.80;99.90;;;;;;5031132;28;20206;-76
2020/12/15 09:39:24;;;;;;;7.00;5.60;;;6.90;99.90;;;;;;5030535;28;20221;-76
2020/12/15 09:41:51;;;;;;;7.15;5.13;;;6.90;99.90;;;;;;5030535;28;20624;-75
2020/12/15 09:44:18;;;;;;;8.40;5.70;;;6.90;99.90;;;;;;5031376;28;20669;-76
2020/12/15 09:46:44;;;;;;;10.38;5.90;;;7.00;99.90;;;;;;5031461;28;20209;-76
2020/12/15 09:49:10;;;;;;;11.02;6.20;;;6.90;99.90;;;;;;5031233;28;20496;-76
2020/12/15 09:51:36;;;;;;;9.68;6.07;;;7.00;99.90;;;;;;5029426;28;20464;-76
2020/12/15 09:54:03;;;;;;;10.60;6.18;;;6.90;99.90;;;;;;5030495;28;20597;-76
2020/12/15 09:56:30;;;;;;;11.73;6.60;;;7.00;99.90;;;;;;5030487;28;20224;-75
2020/12/15 09:58:58;;;;;;;8.55;6.70;;;7.00;99.90;;;;;;5021869;28;20588;-76
2020/12/15 10:01:25;;;;;;;10.27;7.10;;;7.00;99.90;;;;;;4990746;28;20207;-77
2020/12/15 10:03:52;;;;;;;13.18;7.28;;;7.00;99.90;;;;;;4999440;28;20229;-75
2020/12/15 10:06:18;;;;;;;9.63;7.75;;;7.00;99.90;;;;;;5031176;28;20297;-76
2020/12/15 10:08:44;;;;;;;7.05;6.22;;;7.10;99.90;;;;;;5031236;28;20557;-75
2020/12/15 10:11:14;;;;;;;9.70;7.35;;;7.10;99.90;;;;;;5030035;28;20212;-77
2020/12/15 10:13:40;;;;;;;9.85;6.80;;;7.20;99.90;;;;;;5028661;28;20245;-75
2020/12/15 10:16:06;;;;;;;16.08;7.65;;;7.20;99.90;;;;;;5025961;28;20566;-76
2020/12/15 10:18:34;;;;;;;10.65;7.57;;;7.30;99.90;;;;;;4993618;28;20219;-76
2020/12/15 10:21:00;;;;;;;11.40;7.07;;;7.40;99.90;;;;;;5006590;28;20689;-76
2020/12/15 10:23:26;;;;;;;9.45;7.35;;;7.50;99.90;;;;;;5010515;28;20218;-76
2020/12/15 10:25:52;;;;;;;10.18;7.13;;;7.60;99.90;;;;;;5010907;28;20681;-76
2020/12/15 10:28:18;;;;;;;14.57;7.05;;;7.70;99.90;;;;;;5002085;28;20202;-76
2020/12/15 10:30:45;;;;;;;10.95;8.05;;;7.90;99.90;;;;;;5016643;28;20301;-76
2020/12/15 10:33:11;;;;;;;10.32;7.30;;;8.10;99.90;;;;;;5010446;28;20288;-76
2020/12/15 10:35:39;;;;;;;11.18;7.53;;;8.20;99.90;;;;;;5011172;28;20202;-76
2020/12/15 10:38:05;;;;;;;13.30;7.40;;;8.30;99.90;;;;;;5010982;28;20702;-76
2020/12/15 10:40:31;;;;;;;12.82;7.68;;;8.30;99.90;;;;;;5009725;28;20607;-76
2020/12/15 10:42:57;;;;;;;14.32;8.07;;;8.40;99.90;;;;;;5010066;28;20230;-75
2020/12/15 10:45:24;;;;;;;10.23;6.82;;;8.40;99.90;;;;;;5010976;28;20253;-75
2020/12/15 10:47:50;;;;;;;9.68;7.20;;;8.40;99.90;;;;;;5010444;28;20206;-75
2020/12/15 10:50:16;;;;;;;6.93;4.97;;;8.40;99.90;;;;;;5010924;28;20206;-76
2020/12/15 10:52:44;;;;;;;5.03;4.60;;;8.30;99.90;;;;;;5010183;28;20468;-76
2020/12/15 10:55:10;;;;;;;5.55;3.95;;;8.30;99.90;;;;;;5011251;28;20233;-75
2020/12/15 10:57:37;;;;;;;5.38;4.57;;;8.30;99.90;;;;;;5010405;28;20234;-76
2020/12/15 11:00:04;;;;;;;4.72;3.40;;;8.40;99.90;;;;;;5009544;28;20713;-76
2020/12/15 11:02:30;;;;;;;4.60;3.45;;;8.40;99.90;;;;;;5009493;28;20233;-75
2020/12/15 11:04:56;;;;;;;5.00;3.25;;;8.50;99.90;;;;;;5010132;28;20205;-76
2020/12/15 11:07:23;;;;;;;4.70;3.72;;;8.50;99.90;;;;;;5029343;28;20222;-76
2020/12/15 11:09:50;;;;;;;4.28;3.67;;;8.60;99.90;;;;;;5024349;28;20203;-76
2020/12/15 11:12:16;;;;;;;5.65;3.65;;;8.70;99.90;;;;;;5010646;28;20223;-76
2020/12/15 11:14:42;;;;;;;5.53;3.78;;;8.70;99.90;;;;;;5009980;28;20198;-76
2020/12/15 11:17:08;;;;;;;4.13;3.30;;;8.80;99.90;;;;;;5010612;28;20211;-76
2020/12/15 11:19:35;;;;;;;5.03;4.20;;;8.90;99.90;;;;;;5009702;28;20226;-76
2020/12/15 11:22:01;;;;;;;5.55;3.67;;;8.90;99.90;;;;;;5009689;28;20207;-76
2020/12/15 11:24:28;;;;;;;3.60;3.30;;;8.90;99.90;;;;;;5012049;28;20276;-76
2020/12/15 11:26:55;;;;;;;3.75;3.10;;;9.00;99.90;;;;;;5013624;28;20650;-76
2020/12/15 11:29:21;;;;;;;3.33;3.03;;;9.00;99.90;;;;;;5014004;28;20338;-76
2020/12/15 11:31:49;;;;;;;3.80;3.10;;;9.00;99.90;;;;;;5012581;28;20495;-76
2020/12/15 11:34:15;;;;;;;3.80;3.05;;;9.10;99.90;;;;;;5014753;28;20324;-77
2020/12/15 11:36:41;;;;;;;6.57;3.83;;;9.20;99.90;;;;;;5013718;28;20721;-76
2020/12/15 11:39:08;;;;;;;5.60;3.13;;;9.20;99.90;;;;;;5014267;28;20233;-76
2020/12/15 11:41:35;;;;;;;3.13;2.83;;;9.30;99.90;;;;;;5013251;28;20248;-75
2020/12/15 11:44:02;;;;;;;4.05;3.30;;;9.30;99.90;;;;;;5028479;28;20229;-76
2020/12/15 11:46:28;;;;;;;4.18;3.45;;;9.40;99.90;;;;;;5033342;28;20209;-76
2020/12/15 11:48:55;;;;;;;3.78;2.78;;;9.40;99.90;;;;;;5032612;28;20198;-75
2020/12/15 11:51:21;;;;;;;3.92;3.15;;;9.40;99.90;;;;;;5025929;28;20597;-76
2020/12/15 11:53:48;;;;;;;4.18;3.35;;;9.50;99.90;;;;;;5012774;28;20230;-76
2020/12/15 11:56:16;;;;;;;4.10;3.70;;;9.50;99.90;;;;;;5014303;28;20203;-76
2020/12/15 11:58:42;;;;;;;4.00;3.60;;;9.50;99.90;;;;;;5012641;28;20223;-77
2020/12/15 12:01:09;;;;;;;3.53;3.13;;;9.60;99.90;;;;;;5011932;28;20573;-76
2020/12/15 12:03:36;;;;;;;3.10;2.80;;;9.60;99.90;;;;;;5012126;28;20312;-76
2020/12/15 12:06:02;;;;;;;3.40;3.10;;;9.70;99.90;;;;;;5011961;28;20658;-77
2020/12/15 12:08:28;;;;;;;3.72;2.72;;;9.70;99.90;;;;;;5010988;28;20207;-76
2020/12/15 12:10:55;;;;;;;3.08;2.60;;;9.70;99.90;;;;;;5011178;28;20674;-76
2020/12/15 12:13:21;;;;;;;2.90;2.60;;;9.80;99.90;;;;;;5011865;28;20674;-76
2020/12/15 12:15:47;;;;;;;2.70;2.45;;;9.90;99.90;;;;;;5011432;28;20277;-75
2020/12/15 12:18:14;;;;;;;3.53;2.80;;;9.90;99.90;;;;;;5011852;28;20223;-76
2020/12/15 12:20:41;;;;;;;3.97;2.45;;;10.00;99.90;;;;;;5011221;28;20202;-76
2020/12/15 12:23:07;;;;;;;3.45;2.90;;;10.10;99.90;;;;;;5010983;28;20686;-76
2020/12/15 12:25:33;;;;;;;3.42;2.60;;;10.00;99.90;;;;;;5011933;28;20207;-75
2020/12/15 12:27:59;;;;;;;3.55;3.03;;;10.00;99.90;;;;;;5013273;28;20238;-76
2020/12/15 12:30:26;;;;;;;3.75;2.80;;;10.00;99.90;;;;;;5011525;28;20221;-76
2020/12/15 12:32:52;;;;;;;4.60;3.45;;;10.00;99.90;;;;;;5010154;28;20233;-76
2020/12/15 12:35:20;;;;;;;4.25;3.20;;;10.00;99.90;;;;;;5010871;28;20291;-76
2020/12/15 12:37:46;;;;;;;3.97;3.35;;;9.90;99.90;;;;;;5011537;28;20256;-76
2020/12/15 12:40:13;;;;;;;4.80;4.40;;;9.90;99.90;;;;;;5011043;28;20222;-76
2020/12/15 12:42:39;;;;;;;5.70;4.82;;;9.80;99.90;;;;;;5010868;28;20226;-75
2020/12/15 12:45:06;;;;;;;5.72;4.15;;;9.80;99.90;;;;;;5021192;28;20754;-76
2020/12/15 12:47:32;;;;;;;5.68;4.95;;;9.80;99.90;;;;;;5031627;28;20707;-76
2020/12/15 12:49:58;;;;;;;5.22;4.72;;;9.70;99.90;;;;;;5030219;28;20206;-76
2020/12/15 12:52:25;;;;;;;6.45;4.28;;;9.60;99.90;;;;;;5030663;28;20226;-76
2020/12/15 12:54:51;;;;;;;5.90;4.50;;;9.60;99.90;;;;;;5030117;28;20270;-76
2020/12/15 12:57:18;;;;;;;7.95;5.55;;;9.60;99.90;;;;;;5031115;28;20217;-76